Blomkest, Minnesota
Current Conditions -  °F | °C
As of 10:54 PM on Saturday 20 Dec 2014 (Local Time) from KOVL Reporting Station
Overcast Overcast  
Wind Chill: 24°   Ceiling: 900
Heat Index: 32°   Visibility: 10mi
Dew Point: 30°   Wind: 10mph
Humidity: 93%   Direction: 160°SSE
Pressure: 30"   Gusts: NA
Location:  44.94°N, 95.02°W
Report Text: KOVL 210454Z AUTO 16009KT 10SM OVC009 00/M01 A3000 RMK AO2
Loading
Personal Weather Stations






























Interactive Weather Map New forecast layout! Learn more

10-Day Weather Forecast

Advertisements
Track Severe Weather on mobile